Brest, Frankrijk

1:59 AM CET op 26 februari 2017 (GMT +0100)
Guipavas | | Change Station

Hoogte 338 ft 48.45 °N, 4.42 °W | Updated 29 minutes ago

Overcast
Geheel bewolkt
50 °F
Voelt als 50 °F
N
17
Wind Variabel Wind van ZW

Vandaag
Hoog -- | Laag -- °F
--% Kans op neerslag
Gisteren
Hoog -- | Laag -- °F
Precip. -- inches
Druk 29.92 inches
Zicht 3.1 mijlen
Wolken Geheel bewolkt 300 ft
Dauwpunt 50 °F
Vochtigheid 100%
Neerslag 0.00 inches
Dikte sneeuw Niet beschikbaar.
8:04 AM 6:57 PM
Afnemende halvemaan, 0% visible
METAR LFRB 260030Z AUTO 23015KT 5000 BR OVC003 10/10 Q1013 TEMPO DZRA BECMG 21015G25KT
Druk 29.92 inches
Zicht 3.1 mijlen
Wolken Geheel bewolkt 300 ft
Dauwpunt 50 °F
Vochtigheid 100%
Neerslag 0.00 inches
Dikte sneeuw Niet beschikbaar.
8:04 AM 6:57 PM
Afnemende halvemaan, 0% visible
METAR LFRB 260030Z AUTO 23015KT 5000 BR OVC003 10/10 Q1013 TEMPO DZRA BECMG 21015G25KT

Get Your Daily Forecast Email!

Thanks for signing up!

Be on the lookout for a verification email in your inbox.

You'll start receiving the daily forecast at 8 AM.

×

10-Day Weather Forecast

×

Almanac

Astronomie

Feb. 26, 2017 Opkomst Ondergang
Werkelijke tijd
Burgerlijke schemering
Nautische schemering
Astronomische schemering
Maan
Golflengte van het zichtbare licht
Daglengte
Tomorrow will be .
, % of the Moon is Illuminated

Extremen vandaag

Country Highs Country Lows

Community

WunderPhotos

Upload Photos

1,962,540 foto’s ge-upload!

WunderBlog® & News

Nearby

Luchtkwaliteit

  Luchtkwaliteit LK-index Verontreinigende stof
Not available.

Dikte sneeuw

Station Depth Geometrische hoogte

Aardbevingen

Stad Distance Mag. Time & Date
Minimum magnitude displayed is 2.5.

Watertemperatuur langs de kust

Plaats Temperatuur

Stations

Nabije weerstations

Locatie station Temp. Gevoelstemperatuur Dauwpunt Vochtigheid Wind Precip. Hoogte Geactualiseerd Type